createdAt,value
2023-03-17T00:02:25.483Z,7.20
2023-03-17T00:05:33.191Z,7.10
2023-03-17T00:08:37.432Z,7.10
2023-03-17T00:11:42.075Z,7.10
2023-03-17T00:14:46.809Z,7.10
2023-03-17T00:17:50.696Z,7.10
2023-03-17T00:20:53.890Z,7.20
2023-03-17T00:23:58.325Z,7.10
2023-03-17T00:27:04.343Z,7.10
2023-03-17T00:30:08.697Z,7.10
2023-03-17T00:33:12.431Z,7.10
2023-03-17T00:36:18.842Z,7.20
2023-03-17T00:39:21.760Z,7.20
2023-03-17T00:42:26.569Z,7.10
2023-03-17T00:45:29.559Z,7.10
2023-03-17T00:48:32.518Z,7.10
2023-03-17T00:51:35.476Z,7.10
2023-03-17T00:54:38.401Z,7.00
2023-03-17T00:57:44.224Z,7.00
2023-03-17T01:00:47.422Z,7.00
2023-03-17T01:03:50.405Z,7.00
2023-03-17T01:06:53.972Z,7.00
2023-03-17T01:09:57.041Z,6.90
2023-03-17T01:13:01.377Z,6.90
2023-03-17T01:16:04.601Z,6.90
2023-03-17T01:19:08.034Z,6.90
2023-03-17T01:22:11.245Z,6.90
2023-03-17T01:25:14.519Z,6.80
2023-03-17T01:28:20.101Z,6.70
2023-03-17T01:31:23.418Z,6.60
2023-03-17T01:34:27.017Z,6.60
2023-03-17T01:37:29.949Z,6.60
2023-03-17T01:40:35.855Z,6.50
2023-03-17T01:43:40.251Z,6.40
2023-03-17T01:46:43.998Z,6.40
2023-03-17T01:49:47.121Z,6.40
2023-03-17T01:52:50.060Z,6.40
2023-03-17T01:55:53.763Z,6.40
2023-03-17T01:59:02.183Z,6.40
2023-03-17T02:02:08.997Z,6.40
2023-03-17T02:05:16.922Z,6.40
2023-03-17T02:08:21.088Z,6.40
2023-03-17T02:11:24.094Z,6.40
2023-03-17T02:14:29.309Z,6.40
2023-03-17T02:17:32.476Z,6.40
2023-03-17T02:21:20.650Z,6.40
2023-03-17T02:24:32.466Z,6.30
2023-03-17T02:27:39.396Z,6.40
2023-03-17T02:30:43.036Z,6.30
2023-03-17T02:33:46.024Z,6.30
2023-03-17T02:36:49.068Z,6.30
2023-03-17T02:39:53.685Z,6.40
2023-03-17T02:42:57.432Z,6.40
2023-03-17T02:46:01.200Z,6.30
2023-03-17T02:49:05.107Z,6.30
2023-03-17T02:52:09.246Z,6.40
2023-03-17T02:55:14.188Z,6.30
2023-03-17T02:58:17.302Z,6.30
2023-03-17T03:01:21.191Z,6.30
2023-03-17T03:04:26.267Z,6.30
2023-03-17T03:07:29.350Z,6.30
2023-03-17T03:10:33.910Z,6.30
2023-03-17T03:13:37.611Z,6.40
2023-03-17T03:16:41.066Z,6.30
2023-03-17T03:19:44.926Z,6.40
2023-03-17T03:22:47.966Z,6.40
2023-03-17T03:25:52.323Z,6.30
2023-03-17T03:28:57.295Z,6.30
2023-03-17T03:32:00.257Z,6.30
2023-03-17T03:35:04.450Z,6.30
2023-03-17T03:38:07.830Z,6.30
2023-03-17T03:41:13.086Z,6.30
2023-03-17T03:44:16.131Z,6.30
2023-03-17T03:47:19.185Z,6.30
2023-03-17T03:50:22.691Z,6.30
2023-03-17T03:53:25.836Z,6.20
2023-03-17T03:56:30.260Z,6.20
2023-03-17T03:59:33.210Z,6.20
2023-03-17T04:02:36.453Z,6.20
2023-03-17T04:05:39.437Z,6.20
2023-03-17T04:08:42.444Z,6.10
2023-03-17T04:11:46.913Z,6.10
2023-03-17T04:14:50.231Z,6.00
2023-03-17T04:17:54.973Z,6.00
2023-03-17T04:20:58.007Z,6.00
2023-03-17T04:24:01.460Z,6.00
2023-03-17T04:27:06.313Z,5.90
2023-03-17T04:30:12.220Z,5.90
2023-03-17T04:33:15.403Z,5.90
2023-03-17T04:36:20.402Z,5.80
2023-03-17T04:39:23.646Z,5.80
2023-03-17T04:42:28.016Z,5.70
2023-03-17T04:45:31.081Z,5.60
2023-03-17T04:48:34.208Z,5.70
2023-03-17T04:51:37.608Z,5.70
2023-03-17T04:54:40.957Z,5.70
2023-03-17T04:57:45.871Z,5.70
2023-03-17T05:00:48.939Z,5.70
2023-03-17T05:03:51.943Z,5.60
2023-03-17T05:06:58.080Z,5.60
2023-03-17T05:10:02.082Z,5.60
2023-03-17T05:13:06.546Z,5.60
2023-03-17T05:16:10.987Z,5.60
2023-03-17T05:19:14.020Z,5.60
2023-03-17T05:22:17.040Z,5.60
2023-03-17T05:25:20.017Z,5.60
2023-03-17T05:28:24.756Z,5.60
2023-03-17T05:31:27.821Z,5.50
2023-03-17T05:34:31.158Z,5.50
2023-03-17T05:37:34.323Z,5.40
2023-03-17T05:40:37.370Z,5.50
2023-03-17T05:43:41.814Z,5.50
2023-03-17T05:46:44.796Z,5.50
2023-03-17T05:49:47.738Z,5.50
2023-03-17T05:52:51.536Z,5.50
2023-03-17T05:55:54.542Z,5.50
2023-03-17T05:58:59.121Z,5.50
2023-03-17T06:02:02.151Z,5.50
2023-03-17T06:05:06.225Z,5.60
2023-03-17T06:08:09.943Z,5.60
2023-03-17T06:11:13.108Z,5.60
2023-03-17T06:14:18.043Z,5.70
2023-03-17T06:17:21.083Z,5.70
2023-03-17T06:20:24.120Z,5.80
2023-03-17T06:23:27.131Z,5.90
2023-03-17T06:26:30.163Z,5.90
2023-03-17T06:29:34.551Z,6.00
2023-03-17T06:32:37.947Z,5.90
2023-03-17T06:35:41.310Z,5.90
2023-03-17T06:38:46.073Z,5.90
2023-03-17T06:41:49.563Z,5.90
2023-03-17T06:44:53.872Z,5.90
2023-03-17T06:47:56.986Z,5.90
2023-03-17T06:50:59.977Z,6.00
2023-03-17T06:54:03.178Z,6.20
2023-03-17T06:57:06.976Z,6.30
2023-03-17T07:00:14.021Z,6.30
2023-03-17T07:03:17.216Z,6.40
2023-03-17T07:06:20.320Z,6.50
2023-03-17T07:09:25.740Z,6.60
2023-03-17T07:12:28.932Z,6.70
2023-03-17T07:15:35.819Z,6.80
2023-03-17T07:18:39.475Z,7.00
2023-03-17T07:21:42.564Z,7.20
2023-03-17T07:24:46.945Z,7.60
2023-03-17T07:27:50.032Z,7.80
2023-03-17T07:30:54.753Z,8.10
2023-03-17T07:33:58.349Z,8.50
2023-03-17T07:37:01.823Z,9.10
2023-03-17T07:40:06.346Z,9.50
2023-03-17T07:43:10.590Z,10.10
2023-03-17T07:46:15.111Z,10.70
2023-03-17T07:49:20.953Z,10.90
2023-03-17T07:52:31.176Z,10.70
2023-03-17T07:55:34.307Z,10.40
2023-03-17T07:58:37.260Z,10.10
2023-03-17T08:01:41.619Z,9.80
2023-03-17T08:04:45.318Z,9.90
2023-03-17T08:07:48.837Z,9.80
2023-03-17T08:10:52.450Z,9.90
2023-03-17T08:13:55.629Z,10.20
2023-03-17T08:17:00.010Z,10.50
2023-03-17T08:20:04.818Z,10.90
2023-03-17T08:23:07.854Z,11.20
2023-03-17T08:26:11.371Z,11.60
2023-03-17T08:29:15.662Z,11.70
2023-03-17T08:32:20.661Z,11.80
2023-03-17T08:35:24.910Z,12.80
2023-03-17T08:38:28.352Z,13.80
2023-03-17T08:41:31.979Z,13.90
2023-03-17T08:44:35.257Z,14.30
2023-03-17T08:47:40.231Z,14.60
2023-03-17T08:50:43.381Z,14.60
2023-03-17T08:53:46.536Z,14.80
2023-03-17T08:56:49.533Z,14.40
2023-03-17T08:59:52.592Z,14.40
2023-03-17T09:02:58.296Z,14.10
2023-03-17T09:06:04.526Z,13.70
2023-03-17T09:09:07.632Z,13.30
2023-03-17T09:12:11.211Z,13.30
2023-03-17T09:15:14.171Z,13.20
2023-03-17T09:18:20.768Z,13.30
2023-03-17T09:21:25.025Z,13.30
2023-03-17T09:24:28.001Z,13.30
2023-03-17T09:27:31.023Z,13.30
2023-03-17T09:30:34.211Z,13.80
2023-03-17T09:33:38.560Z,14.30
2023-03-17T09:36:42.051Z,14.60
2023-03-17T09:39:45.027Z,14.90
2023-03-17T09:42:55.531Z,15.60
2023-03-17T09:46:01.937Z,16.10
2023-03-17T09:49:09.163Z,16.30
2023-03-17T09:52:14.829Z,16.20
2023-03-17T09:55:26.236Z,15.40
2023-03-17T09:58:32.720Z,15.30
2023-03-17T10:01:44.654Z,15.70
2023-03-17T10:04:49.215Z,15.70
2023-03-17T10:08:00.151Z,15.90
2023-03-17T10:11:12.682Z,15.90
2023-03-17T10:14:28.585Z,16.10
2023-03-17T10:17:35.288Z,16.10
2023-03-17T10:20:51.508Z,16.20
2023-03-17T10:23:56.265Z,16.00
2023-03-17T10:27:04.611Z,15.70
2023-03-17T10:30:16.044Z,15.50
2023-03-17T10:33:19.044Z,15.20
2023-03-17T10:36:37.688Z,15.30
2023-03-17T10:39:46.154Z,15.30
2023-03-17T10:42:53.284Z,15.10
2023-03-17T10:46:00.164Z,15.20
2023-03-17T10:49:09.330Z,15.40
2023-03-17T10:52:21.040Z,16.10
2023-03-17T10:55:28.042Z,16.60
2023-03-17T10:58:38.554Z,16.70
2023-03-17T11:01:47.857Z,17.00
2023-03-17T11:04:51.177Z,17.60
2023-03-17T11:08:08.127Z,17.70
2023-03-17T11:11:24.673Z,17.80
2023-03-17T11:14:28.230Z,18.10
2023-03-17T11:17:43.248Z,18.60
2023-03-17T11:20:51.280Z,18.80
2023-03-17T11:24:02.598Z,18.80
2023-03-17T11:27:12.925Z,19.10
2023-03-17T11:30:22.145Z,19.40
2023-03-17T11:33:36.168Z,19.60
2023-03-17T11:36:53.586Z,19.60
2023-03-17T11:40:07.747Z,19.40
2023-03-17T11:43:22.861Z,19.30
2023-03-17T11:46:29.580Z,19.70
2023-03-17T11:49:36.929Z,19.90
2023-03-17T11:52:49.674Z,20.30
2023-03-17T11:55:58.751Z,20.90
2023-03-17T11:59:05.396Z,21.30
2023-03-17T12:02:20.023Z,22.30
2023-03-17T12:05:26.086Z,21.90
2023-03-17T12:08:37.662Z,22.00
2023-03-17T12:11:44.772Z,22.70
2023-03-17T12:14:52.329Z,22.90
2023-03-17T12:17:59.840Z,23.10
2023-03-17T12:21:10.826Z,23.80
2023-03-17T12:24:20.047Z,23.60
2023-03-17T12:27:29.582Z,24.00
2023-03-17T12:30:41.041Z,24.20
2023-03-17T12:33:51.819Z,23.80
2023-03-17T12:36:55.566Z,23.80
2023-03-17T12:40:06.671Z,24.30
2023-03-17T12:43:36.947Z,24.50
2023-03-17T12:47:00.865Z,24.50
2023-03-17T12:50:30.858Z,23.50
2023-03-17T12:53:35.488Z,24.30
2023-03-17T12:56:45.575Z,24.00
2023-03-17T12:59:57.498Z,24.60
2023-03-17T13:03:19.895Z,24.50
2023-03-17T13:06:24.622Z,24.40
2023-03-17T13:09:33.354Z,24.60
2023-03-17T13:12:57.391Z,24.50
2023-03-17T13:16:05.599Z,24.10
2023-03-17T13:19:16.915Z,23.90
2023-03-17T13:22:35.113Z,24.20
2023-03-17T13:25:53.324Z,24.40
2023-03-17T13:28:56.413Z,24.60
2023-03-17T13:32:35.443Z,24.80
2023-03-17T13:35:42.292Z,25.50
2023-03-17T13:39:18.316Z,24.30
2023-03-17T13:42:39.768Z,23.90
2023-03-17T13:45:44.178Z,23.50
2023-03-17T13:48:48.824Z,23.30
2023-03-17T13:51:59.818Z,22.90
2023-03-17T13:55:25.604Z,23.00
2023-03-17T13:58:36.039Z,22.90
2023-03-17T14:01:43.641Z,22.10
2023-03-17T14:04:53.437Z,21.40
2023-03-17T14:08:01.657Z,20.90
2023-03-17T14:11:08.889Z,20.30
2023-03-17T14:14:32.041Z,20.10
2023-03-17T14:17:42.517Z,19.60
2023-03-17T14:20:53.960Z,19.30
2023-03-17T14:23:58.221Z,18.90
2023-03-17T14:27:08.209Z,18.80
2023-03-17T14:30:19.718Z,18.80
2023-03-17T14:33:24.775Z,18.60
2023-03-17T14:36:29.263Z,18.60
2023-03-17T14:39:32.517Z,18.40
2023-03-17T14:42:36.011Z,18.40
2023-03-17T14:45:52.961Z,18.50
2023-03-17T14:49:01.076Z,18.50
2023-03-17T14:52:04.112Z,18.40
2023-03-17T14:55:08.226Z,18.30
2023-03-17T14:58:20.214Z,18.20
2023-03-17T15:01:35.639Z,18.10
2023-03-17T15:04:52.556Z,18.00
2023-03-17T15:07:55.997Z,17.90
2023-03-17T15:11:00.579Z,17.80
2023-03-17T15:14:07.603Z,17.80
2023-03-17T15:17:18.950Z,17.70
2023-03-17T15:20:22.525Z,17.60
2023-03-17T15:23:29.330Z,17.50
2023-03-17T15:26:32.390Z,17.30
2023-03-17T15:29:35.516Z,17.20
2023-03-17T15:32:40.066Z,17.10
2023-03-17T15:35:43.188Z,17.00
2023-03-17T15:38:46.156Z,16.90
2023-03-17T15:41:49.125Z,17.00
2023-03-17T15:44:52.158Z,17.00
2023-03-17T15:47:57.042Z,17.00
2023-03-17T15:51:01.414Z,17.00
2023-03-17T15:54:04.577Z,16.90
2023-03-17T15:57:07.627Z,16.70
2023-03-17T16:00:16.710Z,16.70
2023-03-17T16:03:28.460Z,16.70
2023-03-17T16:06:31.546Z,16.70
2023-03-17T16:09:35.896Z,16.70
2023-03-17T16:12:38.859Z,16.70
2023-03-17T16:15:44.142Z,16.70
2023-03-17T16:18:50.204Z,16.70
2023-03-17T16:21:55.152Z,16.60
2023-03-17T16:24:58.987Z,16.70
2023-03-17T16:28:03.938Z,16.60
2023-03-17T16:31:21.563Z,16.60
2023-03-17T16:34:26.574Z,16.60
2023-03-17T16:37:29.717Z,16.50
2023-03-17T16:40:36.474Z,16.50
2023-03-17T16:43:40.882Z,16.40
2023-03-17T16:46:44.970Z,16.30
2023-03-17T16:49:49.297Z,16.30
2023-03-17T16:52:52.418Z,16.20
2023-03-17T16:55:56.019Z,16.10
2023-03-17T16:58:59.752Z,16.00
2023-03-17T17:02:02.864Z,16.00
2023-03-17T17:05:15.493Z,15.90
2023-03-17T17:08:18.467Z,15.90
2023-03-17T17:11:22.188Z,15.80
2023-03-17T17:14:25.218Z,15.70
2023-03-17T17:17:28.316Z,15.70
2023-03-17T17:20:34.363Z,15.60
2023-03-17T17:23:37.487Z,15.50
2023-03-17T17:26:41.416Z,15.50
2023-03-17T17:29:44.536Z,15.50
2023-03-17T17:32:48.047Z,15.30
2023-03-17T17:35:53.208Z,15.20
2023-03-17T17:38:56.244Z,15.10
2023-03-17T17:41:59.189Z,15.20
2023-03-17T17:45:02.470Z,15.10
2023-03-17T17:48:05.576Z,15.10
2023-03-17T17:51:09.878Z,15.00
2023-03-17T17:54:12.915Z,14.90
2023-03-17T17:57:16.639Z,14.80
2023-03-17T18:00:20.375Z,14.70
2023-03-17T18:03:25.191Z,14.70
2023-03-17T18:06:29.625Z,14.50
2023-03-17T18:09:32.729Z,14.40
2023-03-17T18:12:35.689Z,14.30
2023-03-17T18:15:38.838Z,14.20
2023-03-17T18:18:43.252Z,14.10
2023-03-17T18:21:47.586Z,14.10
2023-03-17T18:24:50.896Z,14.10
2023-03-17T18:27:54.400Z,14.10
2023-03-17T18:31:01.193Z,14.10
2023-03-17T18:34:07.599Z,14.10
2023-03-17T18:37:14.056Z,14.10
2023-03-17T18:40:32.197Z,14.00
2023-03-17T18:43:35.406Z,13.90
2023-03-17T18:46:38.432Z,13.90
2023-03-17T18:49:41.428Z,13.80
2023-03-17T18:52:46.408Z,13.70
2023-03-17T18:55:49.497Z,13.60
2023-03-17T18:58:52.443Z,13.70
2023-03-17T19:01:56.294Z,13.60
2023-03-17T19:04:59.603Z,13.70
2023-03-17T19:08:04.015Z,13.70
2023-03-17T19:11:08.892Z,13.70
2023-03-17T19:14:14.022Z,13.60
2023-03-17T19:17:17.212Z,13.70
2023-03-17T19:20:20.428Z,13.70
2023-03-17T19:23:25.061Z,13.70
2023-03-17T19:26:30.294Z,13.70
2023-03-17T19:29:33.479Z,13.70
2023-03-17T19:32:36.653Z,13.80
2023-03-17T19:35:40.746Z,13.80
2023-03-17T19:38:45.186Z,13.80
2023-03-17T19:41:48.473Z,13.80
2023-03-17T19:44:51.546Z,13.80
2023-03-17T19:47:54.664Z,13.80
2023-03-17T19:50:57.692Z,13.80
2023-03-17T19:54:02.161Z,13.70
2023-03-17T19:57:05.466Z,13.60
2023-03-17T20:00:11.805Z,13.50
2023-03-17T20:03:15.378Z,13.50
2023-03-17T20:06:18.818Z,13.40
2023-03-17T20:09:24.647Z,13.40
2023-03-17T20:12:27.765Z,13.30
2023-03-17T20:15:30.926Z,13.30
2023-03-17T20:18:34.071Z,13.20
2023-03-17T20:21:37.644Z,13.20
2023-03-17T20:24:42.452Z,13.20
2023-03-17T20:27:45.451Z,13.20
2023-03-17T20:30:49.278Z,13.20
2023-03-17T20:33:52.346Z,13.20
2023-03-17T20:36:55.345Z,13.10
2023-03-17T20:40:01.169Z,13.10
2023-03-17T20:43:04.178Z,13.10
2023-03-17T20:46:09.191Z,13.00
2023-03-17T20:49:13.027Z,13.00
2023-03-17T20:52:17.417Z,13.00
2023-03-17T20:55:21.755Z,13.00
2023-03-17T20:58:24.833Z,13.00
2023-03-17T21:01:29.291Z,12.90
2023-03-17T21:04:32.321Z,12.90
2023-03-17T21:07:35.426Z,12.80
2023-03-17T21:10:39.862Z,12.90
2023-03-17T21:13:44.095Z,12.90
2023-03-17T21:16:47.329Z,12.90
2023-03-17T21:19:50.406Z,12.90
2023-03-17T21:22:53.362Z,12.90
2023-03-17T21:25:57.728Z,12.90
2023-03-17T21:29:00.726Z,12.90
2023-03-17T21:32:06.799Z,12.80
2023-03-17T21:35:10.374Z,12.80
2023-03-17T21:38:13.375Z,12.80
2023-03-17T21:41:22.992Z,12.80
2023-03-17T21:44:26.399Z,12.80
2023-03-17T21:47:30.289Z,12.80
2023-03-17T21:50:33.639Z,12.70
2023-03-17T21:53:36.834Z,12.70
2023-03-17T21:56:41.491Z,12.60
2023-03-17T21:59:45.494Z,12.60
2023-03-17T22:02:48.561Z,12.60
2023-03-17T22:05:52.528Z,12.60
2023-03-17T22:08:55.549Z,12.70
2023-03-17T22:11:59.978Z,12.60
2023-03-17T22:15:03.819Z,12.60
2023-03-17T22:18:06.976Z,12.50
2023-03-17T22:21:11.099Z,12.50
2023-03-17T22:24:14.351Z,12.50
2023-03-17T22:27:19.331Z,12.50
2023-03-17T22:30:22.379Z,12.50
2023-03-17T22:33:25.332Z,12.60
2023-03-17T22:36:29.154Z,12.50
2023-03-17T22:39:32.198Z,12.50
2023-03-17T22:42:36.561Z,12.50
2023-03-17T22:45:39.991Z,12.50
2023-03-17T22:48:43.005Z,12.50
2023-03-17T22:51:47.839Z,12.50
2023-03-17T22:54:50.842Z,12.50
2023-03-17T22:57:55.160Z,12.50
2023-03-17T23:00:58.338Z,12.50
2023-03-17T23:04:01.967Z,12.50
2023-03-17T23:07:05.816Z,12.40
2023-03-17T23:10:10.010Z,12.40
2023-03-17T23:13:14.739Z,12.40
2023-03-17T23:16:18.205Z,12.30
2023-03-17T23:19:21.252Z,12.30
2023-03-17T23:22:24.244Z,12.30
2023-03-17T23:25:27.203Z,12.20
2023-03-17T23:28:31.564Z,12.10
2023-03-17T23:31:35.001Z,12.00
2023-03-17T23:34:38.030Z,12.00
2023-03-17T23:37:41.605Z,12.00
2023-03-17T23:40:44.571Z,11.90
2023-03-17T23:43:48.990Z,11.90
2023-03-17T23:46:52.377Z,11.80
2023-03-17T23:49:55.878Z,11.80
2023-03-17T23:52:59.109Z,11.70
2023-03-17T23:56:02.185Z,11.70
2023-03-17T23:59:07.994Z,11.60
